createdAt,value
2022-09-07T00:02:58.275Z,101073.60
2022-09-07T00:08:01.476Z,101070.00
2022-09-07T00:13:07.139Z,101066.60
2022-09-07T00:18:10.054Z,101065.40
2022-09-07T00:23:13.789Z,101057.20
2022-09-07T00:28:16.700Z,101052.00
2022-09-07T00:33:19.651Z,101048.20
2022-09-07T00:38:22.706Z,101040.40
2022-09-07T00:43:43.033Z,101042.40
2022-09-07T00:49:08.274Z,101038.40
2022-09-07T00:54:41.181Z,101040.00
2022-09-07T00:59:49.996Z,101043.00
2022-09-07T01:05:09.281Z,101042.60
2022-09-07T01:10:13.307Z,101033.60
2022-09-07T01:15:16.430Z,101032.20
2022-09-07T01:21:00.318Z,101034.00
2022-09-07T01:26:31.796Z,101026.80
2022-09-07T01:31:52.294Z,101025.80
2022-09-07T01:37:43.413Z,101018.40
2022-09-07T01:43:23.176Z,101012.80
2022-09-07T01:48:27.280Z,101011.20
2022-09-07T01:53:38.648Z,101006.60
2022-09-07T01:58:56.788Z,101007.00
2022-09-07T02:04:10.421Z,101004.80
2022-09-07T02:09:25.138Z,101009.60
2022-09-07T02:14:37.167Z,101005.60
2022-09-07T02:19:52.242Z,101009.00
2022-09-07T02:25:00.080Z,100999.60
2022-09-07T02:30:03.330Z,101002.60
2022-09-07T02:35:07.462Z,100994.20
2022-09-07T02:40:11.643Z,100989.80
2022-09-07T02:45:17.432Z,100992.60
2022-09-07T02:50:20.252Z,100989.00
2022-09-07T02:55:35.095Z,100989.80
2022-09-07T03:01:02.394Z,100987.40
2022-09-07T03:06:17.363Z,100980.20
2022-09-07T03:11:21.354Z,100980.80
2022-09-07T03:16:24.330Z,100978.80
2022-09-07T03:21:27.273Z,100976.00
2022-09-07T03:26:30.354Z,100979.60
2022-09-07T03:31:35.184Z,100974.80
2022-09-07T03:36:38.817Z,100970.00
2022-09-07T03:41:41.865Z,100967.80
2022-09-07T03:46:44.884Z,100971.40
2022-09-07T03:51:47.870Z,100967.40
2022-09-07T03:56:50.872Z,100968.20
2022-09-07T04:01:58.889Z,100969.40
2022-09-07T04:07:01.880Z,100967.00
2022-09-07T04:12:05.094Z,100966.60
2022-09-07T04:17:08.067Z,100963.00
2022-09-07T04:22:11.069Z,100977.60
2022-09-07T04:27:14.018Z,100974.80
2022-09-07T04:32:16.962Z,100981.80
2022-09-07T04:37:20.010Z,100977.00
2022-09-07T04:42:23.010Z,100988.20
2022-09-07T04:47:26.101Z,100988.80
2022-09-07T04:52:29.091Z,100984.00
2022-09-07T04:57:32.044Z,100988.80
2022-09-07T05:02:35.429Z,100993.20
2022-09-07T05:07:38.513Z,100992.00
2022-09-07T05:12:41.412Z,100993.80
2022-09-07T05:17:44.361Z,100989.60
2022-09-07T05:22:48.473Z,100983.60
2022-09-07T05:27:51.660Z,100977.20
2022-09-07T05:32:54.598Z,100979.20
2022-09-07T05:37:57.651Z,100974.80
2022-09-07T05:43:00.797Z,100979.40
2022-09-07T05:48:03.916Z,100978.80
2022-09-07T05:53:07.055Z,100972.60
2022-09-07T05:58:10.196Z,100971.00
2022-09-07T06:03:13.467Z,100964.00
2022-09-07T06:08:16.627Z,100963.60
2022-09-07T06:13:19.687Z,100953.60
2022-09-07T06:18:22.792Z,100951.40
2022-09-07T06:23:25.902Z,100946.00
2022-09-07T06:28:39.504Z,100954.60
2022-09-07T06:33:45.083Z,100958.20
2022-09-07T06:38:50.168Z,100944.40
2022-09-07T06:43:54.843Z,100947.00
2022-09-07T06:48:57.879Z,100942.80
2022-09-07T06:59:25.090Z,100951.80
2022-09-07T07:04:28.177Z,100952.20
2022-09-07T07:09:31.113Z,100954.00
2022-09-07T07:14:36.436Z,100966.00
2022-09-07T07:19:41.642Z,100962.80
2022-09-07T07:24:44.530Z,100966.00
2022-09-07T07:29:47.994Z,100963.00
2022-09-07T07:34:50.899Z,100958.40
2022-09-07T07:50:39.856Z,100973.20
2022-09-07T07:55:43.312Z,100968.60
2022-09-07T08:00:54.892Z,100973.60
2022-09-07T08:06:08.066Z,100976.60
2022-09-07T08:11:17.047Z,100966.20
2022-09-07T08:16:20.046Z,100962.20
2022-09-07T08:21:23.042Z,100960.60
2022-09-07T08:26:27.326Z,100964.20
2022-09-07T08:31:30.282Z,100965.40
2022-09-07T08:36:33.746Z,100965.20
2022-09-07T08:42:11.288Z,100962.60
2022-09-07T08:47:47.136Z,100961.00
2022-09-07T08:52:56.546Z,100953.00
2022-09-07T08:58:32.676Z,100950.00
2022-09-07T09:09:31.075Z,100939.00
2022-09-07T09:14:55.780Z,100926.20
2022-09-07T09:20:31.155Z,100923.80
2022-09-07T09:25:38.407Z,100917.40
2022-09-07T09:30:42.272Z,100918.80
2022-09-07T09:35:51.633Z,100923.00
2022-09-07T09:40:56.244Z,100915.20
2022-09-07T09:46:17.234Z,100912.20
2022-09-07T09:56:47.880Z,100901.80
2022-09-07T10:07:21.860Z,100894.40
2022-09-07T10:12:32.431Z,100892.80
2022-09-07T10:17:42.786Z,100885.40
2022-09-07T10:22:58.700Z,100881.60
2022-09-07T10:28:12.758Z,100879.80
2022-09-07T10:39:29.862Z,100878.20
2022-09-07T10:44:38.886Z,100870.40
2022-09-07T10:55:34.942Z,100860.20
2022-09-07T11:00:59.505Z,100862.80
2022-09-07T11:06:22.558Z,100853.20
2022-09-07T11:17:08.012Z,100846.60
2022-09-07T11:22:32.212Z,100857.40
2022-09-07T11:27:49.938Z,100845.40
2022-09-07T11:33:06.968Z,100837.20
2022-09-07T11:38:35.468Z,100831.80
2022-09-07T11:43:45.810Z,100832.00
2022-09-07T11:48:56.466Z,100831.60
2022-09-07T11:54:41.622Z,100828.40
2022-09-07T12:00:07.336Z,100820.40
2022-09-07T12:05:49.586Z,100823.00
2022-09-07T12:11:04.618Z,100824.60
2022-09-07T12:16:58.125Z,100822.60
2022-09-07T12:22:01.343Z,100815.40
2022-09-07T12:27:08.542Z,100815.60
2022-09-07T12:37:40.191Z,100807.80
2022-09-07T12:42:43.237Z,100802.20
2022-09-07T12:47:59.114Z,100807.60
2022-09-07T12:53:45.471Z,100807.60
2022-09-07T12:59:19.767Z,100809.00
2022-09-07T13:04:52.796Z,100801.00
2022-09-07T13:10:15.854Z,100797.20
2022-09-07T13:16:06.100Z,100789.00
2022-09-07T13:21:08.980Z,100778.00
2022-09-07T13:26:52.335Z,100773.60
2022-09-07T13:32:20.007Z,100769.40
2022-09-07T13:37:26.044Z,100768.40
2022-09-07T13:42:36.501Z,100763.40
2022-09-07T13:47:54.694Z,100752.20
2022-09-07T13:53:23.353Z,100750.20
2022-09-07T13:58:35.385Z,100752.20
2022-09-07T14:04:07.625Z,100753.80
2022-09-07T14:09:18.058Z,100752.20
2022-09-07T14:14:27.387Z,100745.80
2022-09-07T14:19:49.628Z,100743.00
2022-09-07T14:25:05.868Z,100736.60
2022-09-07T14:30:33.442Z,100735.80
2022-09-07T14:35:41.437Z,100723.80
2022-09-07T14:40:45.588Z,100722.40
2022-09-07T14:45:49.711Z,100721.20
2022-09-07T14:51:05.828Z,100713.80
2022-09-07T14:56:39.440Z,100711.20
2022-09-07T15:01:42.426Z,100704.60
2022-09-07T15:07:02.622Z,100704.80
2022-09-07T15:12:36.380Z,100702.80
2022-09-07T15:17:43.278Z,100695.60
2022-09-07T15:22:46.699Z,100689.20
2022-09-07T15:27:49.938Z,100692.40
2022-09-07T15:32:57.371Z,100695.20
2022-09-07T15:38:01.868Z,100698.80
2022-09-07T15:43:19.558Z,100693.20
2022-09-07T15:48:27.348Z,100692.20
2022-09-07T15:58:54.968Z,100684.00
2022-09-07T16:03:59.621Z,100680.60
2022-09-07T16:09:06.240Z,100682.20
2022-09-07T16:14:12.575Z,100681.20
2022-09-07T16:19:20.121Z,100675.20
2022-09-07T16:24:23.334Z,100677.80
2022-09-07T16:29:26.405Z,100675.00
2022-09-07T16:34:30.232Z,100672.00
2022-09-07T16:39:34.043Z,100679.00
2022-09-07T16:44:37.206Z,100677.40
2022-09-07T16:49:40.565Z,100676.20
2022-09-07T16:54:43.462Z,100675.40
2022-09-07T16:59:46.777Z,100676.40
2022-09-07T17:04:50.844Z,100671.20
2022-09-07T17:09:54.407Z,100676.60
2022-09-07T17:14:57.304Z,100672.20
2022-09-07T17:20:00.344Z,100678.80
2022-09-07T17:25:03.354Z,100685.60
2022-09-07T17:30:07.001Z,100683.80
2022-09-07T17:35:10.109Z,100679.40
2022-09-07T17:40:13.919Z,100683.40
2022-09-07T17:45:17.161Z,100687.00
2022-09-07T17:50:20.070Z,100690.20
2022-09-07T17:55:22.970Z,100697.60
2022-09-07T18:00:26.000Z,100707.00
2022-09-07T18:05:28.955Z,100715.00
2022-09-07T18:16:00.185Z,100711.80
2022-09-07T18:21:21.265Z,100714.60
2022-09-07T18:26:52.404Z,100719.40
2022-09-07T18:32:50.440Z,100712.80
2022-09-07T18:38:01.975Z,100713.40
2022-09-07T18:43:16.753Z,100717.00
2022-09-07T18:48:33.427Z,100716.80
2022-09-07T18:53:45.671Z,100725.40
2022-09-07T18:59:14.269Z,100724.60
2022-09-07T19:04:18.446Z,100718.20
2022-09-07T19:09:27.537Z,100718.40
2022-09-07T19:15:03.951Z,100713.60
2022-09-07T19:20:44.023Z,100712.40
2022-09-07T19:25:54.538Z,100709.20
2022-09-07T19:31:27.332Z,100708.00
2022-09-07T19:37:12.941Z,100714.40
2022-09-07T19:42:22.713Z,100718.80
2022-09-07T19:47:41.799Z,100721.40
2022-09-07T19:52:50.398Z,100725.00
2022-09-07T19:58:20.812Z,100731.60
2022-09-07T20:03:50.791Z,100727.20
2022-09-07T20:09:07.978Z,100729.60
2022-09-07T20:14:17.183Z,100725.00
2022-09-07T20:19:45.941Z,100724.60
2022-09-07T20:25:04.469Z,100723.60
2022-09-07T20:30:11.185Z,100729.00
2022-09-07T20:35:39.346Z,100722.60
2022-09-07T20:41:18.386Z,100724.00
2022-09-07T20:46:47.033Z,100718.40
2022-09-07T20:52:31.302Z,100718.80
2022-09-07T20:58:53.892Z,100727.80
2022-09-07T21:04:30.805Z,100725.60
2022-09-07T21:10:12.572Z,100723.60
2022-09-07T21:16:03.318Z,100728.80
2022-09-07T21:21:39.020Z,100726.20
2022-09-07T21:26:53.876Z,100734.80
2022-09-07T21:32:12.902Z,100741.60
2022-09-07T21:37:49.664Z,100741.80
2022-09-07T21:43:29.057Z,100739.40
2022-09-07T21:48:56.547Z,100739.40
2022-09-07T21:55:03.122Z,100740.20
2022-09-07T22:00:45.352Z,100735.80
2022-09-07T22:07:02.451Z,100742.00
2022-09-07T22:12:23.487Z,100736.20
2022-09-07T22:17:47.385Z,100737.60
2022-09-07T22:23:09.426Z,100739.60
2022-09-07T22:29:16.989Z,100729.80
2022-09-07T22:35:03.676Z,100730.40
2022-09-07T22:40:27.168Z,100730.20
2022-09-07T22:46:08.751Z,100733.40
2022-09-07T22:51:54.939Z,100726.20
2022-09-07T22:57:54.063Z,100725.40
2022-09-07T23:03:21.096Z,100725.00
2022-09-07T23:08:51.438Z,100728.20
2022-09-07T23:15:16.881Z,100723.20
2022-09-07T23:20:36.799Z,100716.00
2022-09-07T23:26:03.937Z,100706.40
2022-09-07T23:31:35.507Z,100696.60
2022-09-07T23:37:07.744Z,100700.00
2022-09-07T23:42:39.063Z,100700.60
2022-09-07T23:48:53.279Z,100691.80
2022-09-07T23:54:40.824Z,100686.60
2022-09-07T23:59:49.199Z,100680.60
